Time;durP1;ratioP1;P1;durP2;ratioP2;P2;SDS_P1;SDS_P2;PMS_P1;PMS_P2;Temp;Humidity;BMP_temperature;BMP_pressure;BME280_temperature;BME280_humidity;BME280_pressure;Samples;Min_cycle;Max_cycle;Signal;HPM_P1;HPM_P2
2022/05/16 00:00:37;;;;;;;9.07;4.38;;;14.00;99.90;;;;;;5075688;28;20264;-71
2022/05/16 00:03:05;;;;;;;8.57;4.53;;;14.00;99.90;;;;;;5075799;28;20177;-71
2022/05/16 00:05:32;;;;;;;10.20;4.95;;;13.90;99.90;;;;;;5093731;28;20201;-72
2022/05/16 00:07:58;;;;;;;7.30;4.93;;;13.80;99.90;;;;;;5097987;28;20203;-72
2022/05/16 00:10:24;;;;;;;7.55;5.15;;;13.80;99.90;;;;;;5114433;28;20626;-71
2022/05/16 00:12:51;;;;;;;7.32;4.70;;;13.70;99.90;;;;;;5113986;28;20709;-71
2022/05/16 00:15:20;;;;;;;8.02;5.53;;;13.60;99.90;;;;;;5114238;28;20196;-71
2022/05/16 00:17:46;;;;;;;7.43;4.75;;;13.50;99.90;;;;;;5114027;28;20196;-71
2022/05/16 00:20:11;;;;;;;9.57;5.47;;;13.50;99.90;;;;;;5114117;28;20181;-72
2022/05/16 00:22:38;;;;;;;8.10;5.18;;;13.40;99.90;;;;;;5114000;28;20687;-71
2022/05/16 00:25:06;;;;;;;8.18;5.75;;;13.30;99.90;;;;;;5113775;28;20200;-71
2022/05/16 00:27:34;;;;;;;7.15;4.45;;;13.20;99.90;;;;;;5095634;28;20192;-72
2022/05/16 00:30:05;;;;;;;9.00;5.22;;;13.20;99.90;;;;;;5095722;28;20225;-71
2022/05/16 00:32:32;;;;;;;8.30;5.00;;;13.20;99.90;;;;;;5113969;28;20164;-71
2022/05/16 00:34:57;;;;;;;11.57;4.97;;;13.10;99.90;;;;;;5095870;28;20180;-71
2022/05/16 00:37:23;;;;;;;8.38;5.25;;;13.10;99.90;;;;;;5113818;28;20192;-71
2022/05/16 00:39:49;;;;;;;9.25;5.80;;;13.00;99.90;;;;;;5095269;28;20183;-71
2022/05/16 00:42:14;;;;;;;8.20;5.15;;;13.00;99.90;;;;;;5113840;28;20252;-71
2022/05/16 00:44:40;;;;;;;7.65;5.20;;;13.10;99.90;;;;;;5113769;28;20200;-71
2022/05/16 00:47:07;;;;;;;10.23;5.88;;;13.20;99.90;;;;;;5095490;28;20196;-72
2022/05/16 00:49:40;;;;;;;9.10;5.07;;;13.30;99.90;;;;;;5114105;28;20649;-70
2022/05/16 00:52:17;;;;;;;8.57;4.97;;;13.30;99.90;;;;;;5113796;28;20153;-71
2022/05/16 00:54:48;;;;;;;8.07;5.33;;;13.30;99.90;;;;;;5113534;28;20272;-71
2022/05/16 00:57:17;;;;;;;6.22;5.35;;;13.30;99.90;;;;;;5113703;28;20215;-71
2022/05/16 01:00:02;;;;;;;8.40;5.13;;;13.30;99.90;;;;;;5114255;28;20164;-72
2022/05/16 01:05:19;;;;;;;6.97;5.72;;;13.20;99.90;;;;;;5084444;28;20712;-71
2022/05/16 01:07:46;;;;;;;7.78;5.53;;;13.10;99.90;;;;;;5113775;28;20208;-72
2022/05/16 01:10:16;;;;;;;8.05;5.38;;;13.10;99.90;;;;;;5113362;28;20187;-71
2022/05/16 01:12:45;;;;;;;8.88;5.82;;;13.10;99.90;;;;;;5113621;28;20695;-72
2022/05/16 01:15:36;;;;;;;10.02;5.40;;;13.00;99.90;;;;;;5113832;28;20568;-71
2022/05/16 01:18:05;;;;;;;8.10;5.72;;;13.00;99.90;;;;;;5112653;28;20307;-71
2022/05/16 01:20:43;;;;;;;8.43;5.30;;;12.90;99.90;;;;;;5097140;28;20191;-71
2022/05/16 01:23:11;;;;;;;11.63;5.55;;;12.90;99.90;;;;;;5117453;28;20168;-72
2022/05/16 01:25:37;;;;;;;9.93;5.65;;;12.90;99.90;;;;;;5098944;28;20211;-71
2022/05/16 01:28:04;;;;;;;8.70;5.68;;;12.90;99.90;;;;;;5117135;28;20585;-71
2022/05/16 01:30:40;;;;;;;7.03;5.63;;;12.90;99.90;;;;;;5117425;28;20176;-71
2022/05/16 01:33:06;;;;;;;7.68;5.60;;;12.80;99.90;;;;;;5117421;28;20163;-71
2022/05/16 01:35:33;;;;;;;7.93;5.53;;;12.80;99.90;;;;;;5098899;28;20233;-71
2022/05/16 01:41:09;;;;;;;7.97;5.50;;;12.90;99.90;;;;;;5054281;28;20192;-71
2022/05/16 01:43:41;;;;;;;6.28;5.40;;;12.90;99.90;;;;;;5037646;28;20182;-73
2022/05/16 01:46:08;;;;;;;9.87;5.53;;;12.90;99.90;;;;;;5071108;28;20590;-71
2022/05/16 01:48:34;;;;;;;7.90;5.38;;;13.00;99.90;;;;;;5098602;28;20176;-73
2022/05/16 01:51:03;;;;;;;7.85;5.47;;;13.00;99.90;;;;;;5117198;28;20176;-71
2022/05/16 01:53:29;;;;;;;6.85;4.90;;;13.00;99.90;;;;;;5116891;28;20196;-71
2022/05/16 01:55:55;;;;;;;7.10;4.97;;;12.90;99.90;;;;;;5098384;28;20183;-71
2022/05/16 01:58:21;;;;;;;9.13;5.20;;;13.00;99.90;;;;;;5116808;28;20192;-71
2022/05/16 02:00:48;;;;;;;8.52;5.32;;;13.00;99.90;;;;;;5116939;28;20535;-71
2022/05/16 02:03:14;;;;;;;9.23;5.00;;;12.90;99.90;;;;;;5098413;28;20547;-71
2022/05/16 02:05:42;;;;;;;7.10;4.60;;;12.90;99.90;;;;;;5116556;28;20196;-71
2022/05/16 02:08:09;;;;;;;7.43;5.10;;;12.90;99.90;;;;;;5098140;28;20549;-71
2022/05/16 02:10:35;;;;;;;8.68;5.32;;;12.90;99.90;;;;;;5116148;28;20568;-71
2022/05/16 02:13:03;;;;;;;8.68;5.30;;;12.90;99.90;;;;;;5098253;28;20192;-71
2022/05/16 02:15:31;;;;;;;7.40;5.13;;;12.90;99.90;;;;;;5098229;28;20180;-71
2022/05/16 02:17:57;;;;;;;9.25;4.97;;;12.80;99.90;;;;;;5116673;28;20228;-71
2022/05/16 02:20:24;;;;;;;7.97;5.13;;;12.80;99.90;;;;;;5116547;28;20179;-71
2022/05/16 02:25:37;;;;;;;8.68;5.63;;;12.70;99.90;;;;;;5116192;28;20560;-71
2022/05/16 02:28:12;;;;;;;9.10;5.80;;;12.70;99.90;;;;;;5098009;28;20196;-71
2022/05/16 02:30:38;;;;;;;9.30;5.55;;;12.70;99.90;;;;;;5098421;28;20576;-72
2022/05/16 02:33:04;;;;;;;10.30;5.90;;;12.70;99.90;;;;;;5116167;28;20164;-71
2022/05/16 02:35:30;;;;;;;9.65;5.95;;;12.60;99.90;;;;;;5097746;28;20553;-71
2022/05/16 02:37:58;;;;;;;9.98;6.45;;;12.60;99.90;;;;;;5097802;28;20290;-71
2022/05/16 02:40:28;;;;;;;7.60;5.90;;;12.60;99.90;;;;;;5115990;28;20652;-71
2022/05/16 02:42:54;;;;;;;8.00;5.53;;;12.50;99.90;;;;;;5116259;28;20648;-71
2022/05/16 02:45:20;;;;;;;8.70;5.65;;;12.60;99.90;;;;;;5097891;28;20219;-71
2022/05/16 02:47:46;;;;;;;9.82;5.47;;;12.60;99.90;;;;;;5118251;28;20184;-71
2022/05/16 02:50:12;;;;;;;7.95;5.40;;;12.60;99.90;;;;;;5118336;28;20159;-71
2022/05/16 02:52:38;;;;;;;10.40;5.77;;;12.50;99.90;;;;;;5117865;28;20298;-71
2022/05/16 02:55:05;;;;;;;9.87;5.40;;;12.60;99.90;;;;;;5116454;28;20200;-71
2022/05/16 02:57:32;;;;;;;9.88;5.53;;;12.50;99.90;;;;;;5098199;28;20249;-71
2022/05/16 02:59:58;;;;;;;9.90;5.47;;;12.60;99.90;;;;;;5115700;28;20214;-71
2022/05/16 03:02:25;;;;;;;10.40;5.30;;;12.60;99.90;;;;;;5115888;28;20176;-71
2022/05/16 03:04:51;;;;;;;7.13;5.40;;;12.50;99.90;;;;;;5115612;28;20195;-71
2022/05/16 03:07:17;;;;;;;8.93;5.37;;;12.50;99.90;;;;;;5115847;28;20200;-71
2022/05/16 03:09:43;;;;;;;10.30;5.32;;;12.50;99.90;;;;;;5115373;28;20180;-71
2022/05/16 03:12:08;;;;;;;7.07;5.20;;;12.50;99.90;;;;;;5116089;28;20698;-71
2022/05/16 03:14:35;;;;;;;6.07;5.20;;;12.50;99.90;;;;;;5097233;28;20196;-71
2022/05/16 03:17:02;;;;;;;8.93;5.63;;;12.50;99.90;;;;;;5115557;28;20284;-71
2022/05/16 03:19:28;;;;;;;8.35;5.20;;;12.50;99.90;;;;;;5115327;28;20220;-71
2022/05/16 03:21:54;;;;;;;10.43;5.63;;;12.50;99.90;;;;;;5116049;28;20511;-71
2022/05/16 03:24:20;;;;;;;10.20;5.82;;;12.40;99.90;;;;;;5115135;28;20567;-71
2022/05/16 03:26:46;;;;;;;6.87;5.40;;;12.50;99.90;;;;;;5115684;28;20237;-71
2022/05/16 03:29:13;;;;;;;10.50;5.80;;;12.50;99.90;;;;;;5115679;28;20601;-71
2022/05/16 03:31:42;;;;;;;8.98;5.70;;;12.50;99.90;;;;;;5115593;28;20165;-72
2022/05/16 03:34:10;;;;;;;9.10;5.67;;;12.40;99.90;;;;;;5097419;28;20633;-71
2022/05/16 03:36:36;;;;;;;11.00;5.63;;;12.40;99.90;;;;;;5118078;28;20200;-71
2022/05/16 03:41:47;;;;;;;10.38;5.32;;;12.40;99.90;;;;;;5116085;28;20167;-71
2022/05/16 03:44:13;;;;;;;7.30;5.43;;;12.40;99.90;;;;;;5115186;28;20196;-71
2022/05/16 03:46:39;;;;;;;9.77;5.10;;;12.40;99.90;;;;;;5096907;28;20641;-71
2022/05/16 03:49:06;;;;;;;8.80;5.32;;;12.40;99.90;;;;;;5115090;28;20202;-71
2022/05/16 03:51:32;;;;;;;6.60;5.15;;;12.40;99.90;;;;;;5115436;28;20197;-71
2022/05/16 03:53:58;;;;;;;8.60;5.38;;;12.30;99.90;;;;;;5114985;28;20169;-71
2022/05/16 03:56:26;;;;;;;6.80;5.15;;;12.40;99.90;;;;;;5114993;28;20195;-71
2022/05/16 03:58:52;;;;;;;7.90;5.50;;;12.40;99.90;;;;;;5115009;28;20575;-71
2022/05/16 04:01:18;;;;;;;9.50;5.47;;;12.30;99.90;;;;;;5114628;28;20202;-71
2022/05/16 04:03:45;;;;;;;8.05;5.75;;;12.30;99.90;;;;;;5114841;28;20199;-71
2022/05/16 04:06:11;;;;;;;10.00;5.55;;;12.40;99.90;;;;;;5096224;28;20203;-71
2022/05/16 04:08:37;;;;;;;8.60;5.35;;;12.30;99.90;;;;;;5114603;28;20176;-71
2022/05/16 04:11:03;;;;;;;8.65;6.13;;;12.40;99.90;;;;;;5114229;28;20171;-72
2022/05/16 04:13:32;;;;;;;7.72;5.22;;;12.40;99.90;;;;;;5114230;28;20180;-72
2022/05/16 04:15:58;;;;;;;8.15;5.43;;;12.50;99.90;;;;;;5114675;28;20168;-71
2022/05/16 04:18:24;;;;;;;9.15;5.68;;;12.50;99.90;;;;;;5114177;28;20682;-71
2022/05/16 04:20:49;;;;;;;7.87;5.57;;;12.60;99.90;;;;;;5114828;28;20168;-71
2022/05/16 04:23:15;;;;;;;8.10;4.93;;;12.60;99.90;;;;;;5114568;28;20177;-71
2022/05/16 04:25:41;;;;;;;9.95;5.70;;;12.60;99.90;;;;;;5114155;28;20227;-71
2022/05/16 04:28:09;;;;;;;11.50;5.55;;;12.60;99.90;;;;;;5095880;28;20192;-71
2022/05/16 04:30:37;;;;;;;9.40;5.90;;;12.60;99.90;;;;;;5096048;28;20183;-71
2022/05/16 04:33:05;;;;;;;13.05;5.57;;;12.70;99.90;;;;;;5114336;28;20568;-71
2022/05/16 04:35:31;;;;;;;12.35;5.55;;;12.70;99.90;;;;;;5114650;28;20167;-71
2022/05/16 04:37:57;;;;;;;9.55;5.65;;;12.70;99.90;;;;;;5113895;28;20246;-71
2022/05/16 04:40:24;;;;;;;7.15;6.03;;;12.80;99.90;;;;;;5113830;28;20547;-71
2022/05/16 04:42:50;;;;;;;12.20;5.38;;;12.80;99.90;;;;;;5114293;28;20226;-71
2022/05/16 04:45:25;;;;;;;10.05;5.50;;;12.90;99.90;;;;;;5114227;28;20199;-71
2022/05/16 04:48:06;;;;;;;9.32;5.88;;;12.90;99.90;;;;;;5113991;28;20191;-71
2022/05/16 04:50:33;;;;;;;9.88;5.50;;;13.00;99.90;;;;;;5114699;28;20594;-71
2022/05/16 04:53:00;;;;;;;8.70;5.37;;;13.00;99.90;;;;;;5095523;28;20224;-71
2022/05/16 04:55:28;;;;;;;7.20;5.88;;;13.10;99.90;;;;;;5117332;28;20181;-71
2022/05/16 04:57:53;;;;;;;12.02;6.22;;;13.10;99.90;;;;;;5117650;28;20603;-72
2022/05/16 05:00:21;;;;;;;7.47;5.30;;;13.20;99.90;;;;;;5118147;28;20181;-72
2022/05/16 05:02:48;;;;;;;8.48;5.22;;;13.30;99.90;;;;;;5117923;28;20172;-71
2022/05/16 05:05:15;;;;;;;11.77;5.90;;;13.40;99.90;;;;;;5117525;28;20200;-71
2022/05/16 05:07:41;;;;;;;12.38;5.38;;;13.50;99.90;;;;;;5117908;28;20261;-71
2022/05/16 05:15:39;;;;;;;8.50;5.75;;;13.60;99.90;;;;;;5117746;28;20175;-71
2022/05/16 05:18:06;;;;;;;7.97;5.68;;;13.70;99.90;;;;;;5098795;28;20200;-71
2022/05/16 05:20:34;;;;;;;7.53;5.10;;;13.70;99.90;;;;;;5117576;28;20180;-71
2022/05/16 05:23:02;;;;;;;8.20;5.85;;;13.80;99.90;;;;;;5117318;28;20177;-72
2022/05/16 05:25:28;;;;;;;10.25;6.00;;;13.90;99.90;;;;;;5098525;28;20212;-72
2022/05/16 05:27:55;;;;;;;11.45;5.70;;;14.00;99.90;;;;;;5099239;28;20211;-71
2022/05/16 05:30:25;;;;;;;8.10;6.03;;;14.10;99.90;;;;;;5098759;28;20185;-71
2022/05/16 05:32:52;;;;;;;7.55;5.22;;;14.20;99.90;;;;;;5116975;28;20221;-71
2022/05/16 05:35:19;;;;;;;9.35;5.97;;;14.30;99.90;;;;;;5117010;28;20173;-71
2022/05/16 05:37:46;;;;;;;11.93;6.03;;;14.50;99.90;;;;;;5116871;28;20579;-71
2022/05/16 05:40:12;;;;;;;9.60;5.63;;;14.60;99.90;;;;;;5098502;28;20183;-71
2022/05/16 05:42:38;;;;;;;5.75;4.97;;;14.80;99.90;;;;;;5117359;28;20286;-71
2022/05/16 05:45:06;;;;;;;8.52;5.70;;;14.90;99.90;;;;;;5098482;28;20287;-71
2022/05/16 05:47:32;;;;;;;7.72;5.38;;;15.10;99.90;;;;;;5116805;28;20272;-71
2022/05/16 05:49:59;;;;;;;11.35;5.32;;;15.30;99.90;;;;;;5098603;28;20200;-71
2022/05/16 05:52:28;;;;;;;11.85;5.75;;;15.50;99.90;;;;;;5098409;28;20652;-71
2022/05/16 05:54:55;;;;;;;7.68;5.20;;;15.70;99.90;;;;;;5116370;28;20188;-71
2022/05/16 05:57:21;;;;;;;8.48;4.88;;;16.00;99.90;;;;;;5116472;28;20652;-71
2022/05/16 05:59:47;;;;;;;7.97;5.22;;;16.20;99.90;;;;;;5116872;28;20190;-71
2022/05/16 06:02:14;;;;;;;8.48;4.45;;;16.40;99.90;;;;;;5116499;28;20164;-71
2022/05/16 06:04:41;;;;;;;7.63;4.75;;;16.50;99.90;;;;;;5098006;28;20579;-71
2022/05/16 06:07:07;;;;;;;9.32;4.22;;;16.70;99.90;;;;;;5115850;28;20180;-71
2022/05/16 06:09:33;;;;;;;6.70;4.40;;;16.90;99.90;;;;;;5116450;28;20272;-72
2022/05/16 06:11:59;;;;;;;6.90;4.63;;;17.10;99.90;;;;;;5098217;28;20232;-71
2022/05/16 06:14:27;;;;;;;6.88;4.78;;;17.20;99.90;;;;;;5116530;28;20664;-72
2022/05/16 06:16:54;;;;;;;8.55;4.50;;;17.40;99.90;;;;;;5116698;28;20193;-71
2022/05/16 06:19:20;;;;;;;8.30;4.40;;;17.60;99.90;;;;;;5116537;28;20206;-71
2022/05/16 06:21:46;;;;;;;7.60;4.68;;;17.70;99.90;;;;;;5116627;28;20172;-71
2022/05/16 06:26:58;;;;;;;10.32;5.03;;;17.80;99.90;;;;;;5116715;28;20241;-71
2022/05/16 06:29:25;;;;;;;6.63;4.70;;;17.80;99.90;;;;;;5116068;28;20264;-72
2022/05/16 06:31:51;;;;;;;9.50;5.22;;;17.90;99.90;;;;;;5116148;28;20692;-71
2022/05/16 06:34:17;;;;;;;9.18;4.78;;;17.90;99.90;;;;;;5116245;28;20585;-71
2022/05/16 06:36:43;;;;;;;7.47;4.50;;;17.80;99.90;;;;;;5097647;28;20282;-71
2022/05/16 06:39:09;;;;;;;6.63;4.45;;;17.80;99.90;;;;;;5097325;28;20712;-72
2022/05/16 06:41:34;;;;;;;8.52;4.40;;;17.80;99.90;;;;;;5116077;28;20226;-71
2022/05/16 06:44:01;;;;;;;7.03;4.72;;;17.90;99.90;;;;;;5116268;28;20196;-72
2022/05/16 06:46:27;;;;;;;8.50;4.80;;;18.00;99.90;;;;;;5097694;28;20214;-72
2022/05/16 06:48:53;;;;;;;7.20;4.18;;;18.00;99.90;;;;;;5097508;28;20169;-71
2022/05/16 06:51:19;;;;;;;8.63;4.38;;;18.00;99.90;;;;;;5097431;28;20172;-71
2022/05/16 06:53:45;;;;;;;9.55;4.55;;;18.10;99.90;;;;;;5115947;28;20263;-72
2022/05/16 06:56:10;;;;;;;8.63;4.32;;;18.10;99.90;;;;;;5097367;28;20216;-71
2022/05/16 06:58:36;;;;;;;5.68;4.25;;;18.10;99.90;;;;;;5115832;28;20168;-72
2022/05/16 07:01:03;;;;;;;7.32;4.22;;;18.10;99.90;;;;;;5115419;28;20174;-72
2022/05/16 07:03:29;;;;;;;8.77;3.97;;;18.10;99.90;;;;;;5115367;28;20539;-72
2022/05/16 07:05:56;;;;;;;5.75;4.10;;;18.20;99.90;;;;;;5097087;28;20200;-72
2022/05/16 07:08:22;;;;;;;6.30;3.75;;;18.20;99.90;;;;;;5115132;28;20192;-72
2022/05/16 07:10:50;;;;;;;7.55;4.35;;;18.30;99.90;;;;;;5096703;28;20180;-72
2022/05/16 07:13:16;;;;;;;8.75;3.92;;;18.30;99.90;;;;;;5115056;28;20181;-72
2022/05/16 07:15:42;;;;;;;7.53;4.05;;;18.40;99.90;;;;;;5115211;28;20175;-71
2022/05/16 07:18:09;;;;;;;6.47;4.30;;;18.50;99.90;;;;;;5114399;28;20199;-71
2022/05/16 07:20:35;;;;;;;8.50;5.10;;;18.60;99.90;;;;;;5115641;28;20599;-71
2022/05/16 07:23:02;;;;;;;9.80;4.90;;;18.60;99.90;;;;;;5096690;28;20184;-71
2022/05/16 07:25:29;;;;;;;10.55;5.40;;;18.60;99.90;;;;;;5114685;28;20202;-72
2022/05/16 07:27:59;;;;;;;10.55;5.22;;;18.60;99.90;;;;;;5114957;28;20699;-72
2022/05/16 07:30:34;;;;;;;10.20;4.82;;;18.60;99.90;;;;;;5096805;28;20212;-72
2022/05/16 07:33:00;;;;;;;8.10;4.65;;;18.60;99.90;;;;;;5097039;28;20543;-71
2022/05/16 07:35:30;;;;;;;7.45;4.63;;;18.60;99.90;;;;;;5115580;28;20305;-72
2022/05/16 07:37:56;;;;;;;7.90;4.32;;;18.60;99.90;;;;;;5115513;28;20200;-72
2022/05/16 07:40:25;;;;;;;12.60;5.30;;;18.70;99.90;;;;;;5096627;28;20208;-72
2022/05/16 07:42:52;;;;;;;6.82;4.15;;;18.80;99.90;;;;;;5096517;28;20187;-72
2022/05/16 07:45:18;;;;;;;10.85;4.35;;;18.80;99.90;;;;;;5096240;28;20222;-72
2022/05/16 07:47:44;;;;;;;7.20;4.45;;;18.90;99.90;;;;;;5096622;28;20193;-72
2022/05/16 07:50:11;;;;;;;6.05;3.85;;;19.00;99.90;;;;;;5115344;28;20167;-71
2022/05/16 07:52:38;;;;;;;10.35;4.40;;;19.00;99.90;;;;;;5115325;28;20177;-72
2022/05/16 07:55:05;;;;;;;11.88;4.80;;;19.10;99.90;;;;;;5097192;28;20180;-72
2022/05/16 07:57:31;;;;;;;6.68;4.47;;;19.20;99.90;;;;;;5114739;28;20202;-72
2022/05/16 07:59:57;;;;;;;11.48;4.78;;;19.20;99.90;;;;;;5096443;28;20266;-71
2022/05/16 08:02:23;;;;;;;8.80;4.20;;;19.20;99.90;;;;;;5096603;28;20191;-72
2022/05/16 08:04:49;;;;;;;9.15;4.28;;;19.30;99.90;;;;;;5096247;28;20196;-72
2022/05/16 08:07:15;;;;;;;9.52;4.15;;;19.30;99.90;;;;;;5114455;28;20218;-71
2022/05/16 08:12:27;;;;;;;9.52;4.63;;;19.40;99.90;;;;;;5114818;28;20289;-72
2022/05/16 08:14:53;;;;;;;8.93;4.78;;;19.40;99.90;;;;;;5095881;28;20234;-71
2022/05/16 08:17:20;;;;;;;9.07;4.72;;;19.40;99.90;;;;;;5114663;28;20231;-71
2022/05/16 08:19:46;;;;;;;8.52;4.00;;;19.50;99.90;;;;;;5114378;28;20176;-71
2022/05/16 08:22:12;;;;;;;8.90;3.95;;;19.50;99.90;;;;;;5095997;28;20176;-71
2022/05/16 08:24:37;;;;;;;7.65;4.03;;;19.40;99.90;;;;;;5113667;28;20668;-71
2022/05/16 08:27:03;;;;;;;8.18;3.97;;;19.40;99.90;;;;;;5114338;28;20192;-71
2022/05/16 08:29:30;;;;;;;9.63;3.50;;;19.50;99.90;;;;;;5118217;28;20179;-71
2022/05/16 08:31:56;;;;;;;4.90;3.63;;;19.50;99.90;;;;;;5120962;28;20172;-71
2022/05/16 08:34:25;;;;;;;6.20;3.50;;;19.50;99.90;;;;;;5121032;28;20180;-71
2022/05/16 08:40:01;;;;;;;5.30;3.58;;;19.50;99.90;;;;;;5120929;28;20717;-71
2022/05/16 08:42:56;;;;;;;8.07;3.67;;;19.50;99.90;;;;;;5120891;28;20153;-71
2022/05/16 08:45:50;;;;;;;8.38;3.63;;;19.50;99.90;;;;;;5102402;28;20195;-71
2022/05/16 08:48:33;;;;;;;5.95;3.20;;;19.60;99.90;;;;;;5102490;28;20231;-71
2022/05/16 08:51:05;;;;;;;6.30;3.60;;;19.60;99.90;;;;;;5102376;28;20625;-70
2022/05/16 08:53:36;;;;;;;9.13;3.70;;;19.60;99.90;;;;;;5121387;28;20188;-71
2022/05/16 08:56:08;;;;;;;6.78;3.50;;;19.50;99.90;;;;;;5120360;28;20191;-71
2022/05/16 08:58:58;;;;;;;7.55;3.58;;;19.60;99.90;;;;;;5102402;28;20620;-71
2022/05/16 09:01:35;;;;;;;6.95;3.72;;;19.50;99.90;;;;;;5120955;28;20156;-71
2022/05/16 09:04:04;;;;;;;6.47;3.47;;;19.50;99.90;;;;;;5102243;28;20176;-71
2022/05/16 09:06:35;;;;;;;5.93;3.38;;;19.50;99.90;;;;;;5120697;28;20191;-71
2022/05/16 09:09:19;;;;;;;7.38;3.72;;;19.50;99.90;;;;;;5120819;28;20514;-70
2022/05/16 09:12:17;;;;;;;6.00;3.30;;;19.50;99.90;;;;;;5102181;28;20176;-71
2022/05/16 09:14:58;;;;;;;9.07;3.72;;;19.50;99.90;;;;;;5120787;28;20192;-71
2022/05/16 09:17:44;;;;;;;6.30;3.95;;;19.50;99.90;;;;;;5120887;28;20771;-71
2022/05/16 09:20:31;;;;;;;7.93;3.95;;;19.40;99.90;;;;;;5121612;28;20191;-70
2022/05/16 09:23:20;;;;;;;6.22;4.03;;;19.40;99.90;;;;;;5122319;28;20164;-73
2022/05/16 09:26:06;;;;;;;7.45;3.63;;;19.50;99.90;;;;;;5121323;28;20667;-74
2022/05/16 09:28:41;;;;;;;8.85;4.28;;;19.50;99.90;;;;;;5052197;28;20195;-71
2022/05/16 09:31:21;;;;;;;6.82;4.00;;;19.50;99.90;;;;;;5120973;28;20156;-71
2022/05/16 09:33:53;;;;;;;5.47;3.60;;;19.50;99.90;;;;;;5120431;28;20255;-71
2022/05/16 09:36:25;;;;;;;4.72;2.88;;;19.50;99.90;;;;;;5120830;28;20245;-72
2022/05/16 09:38:51;;;;;;;6.85;3.70;;;19.60;99.90;;;;;;5120608;28;20233;-71
2022/05/16 09:41:22;;;;;;;4.90;3.78;;;19.60;99.90;;;;;;5098461;28;20184;-71
2022/05/16 09:44:04;;;;;;;5.40;3.60;;;19.60;99.90;;;;;;5099353;28;20180;-72
2022/05/16 09:46:35;;;;;;;7.25;3.47;;;19.50;99.90;;;;;;5099245;28;20212;-72
2022/05/16 09:49:22;;;;;;;5.78;3.65;;;19.40;99.90;;;;;;5099136;28;20179;-73
2022/05/16 09:51:57;;;;;;;4.70;3.50;;;19.40;99.90;;;;;;5117645;28;20523;-72
2022/05/16 09:54:32;;;;;;;7.30;3.85;;;19.40;99.90;;;;;;5118220;28;20164;-73
2022/05/16 09:57:04;;;;;;;7.40;4.00;;;19.30;99.90;;;;;;5117268;28;20203;-72
2022/05/16 10:00:00;;;;;;;6.68;3.58;;;19.30;99.90;;;;;;5098902;28;20176;-72
2022/05/16 10:02:39;;;;;;;6.90;3.85;;;19.20;99.90;;;;;;5099015;28;20172;-72
2022/05/16 10:05:20;;;;;;;8.13;4.13;;;19.10;99.90;;;;;;5117289;28;20275;-72
2022/05/16 10:08:01;;;;;;;7.75;4.30;;;19.00;99.90;;;;;;5098540;28;20218;-72
2022/05/16 10:10:36;;;;;;;6.32;3.92;;;18.90;99.90;;;;;;5098789;28;20157;-72
2022/05/16 10:13:03;;;;;;;6.65;3.95;;;18.80;99.90;;;;;;5099245;28;20545;-72
2022/05/16 10:15:31;;;;;;;8.18;4.07;;;18.70;99.90;;;;;;5119153;28;20202;-72
2022/05/16 10:17:59;;;;;;;6.32;4.55;;;18.70;99.90;;;;;;5118270;28;20556;-72
2022/05/16 10:20:32;;;;;;;7.95;4.43;;;18.70;99.90;;;;;;5117291;28;20656;-72
2022/05/16 10:23:02;;;;;;;8.70;4.15;;;18.70;99.90;;;;;;5117140;28;20161;-72
2022/05/16 10:25:52;;;;;;;6.30;3.97;;;18.80;99.90;;;;;;5116540;28;20690;-72
2022/05/16 10:28:25;;;;;;;8.60;4.57;;;18.90;99.90;;;;;;5116214;28;20203;-72
2022/05/16 10:33:39;;;;;;;5.55;4.00;;;19.10;99.90;;;;;;5116648;28;20190;-72
2022/05/16 10:36:06;;;;;;;8.05;4.63;;;19.20;99.90;;;;;;5097774;28;20187;-72
2022/05/16 10:38:58;;;;;;;8.48;4.88;;;19.30;99.90;;;;;;5115970;28;20253;-72
2022/05/16 10:41:29;;;;;;;7.97;4.57;;;19.40;99.90;;;;;;5116101;28;20156;-72
2022/05/16 10:44:08;;;;;;;5.50;3.95;;;19.40;99.90;;;;;;5116319;28;20251;-72
2022/05/16 10:46:38;;;;;;;9.05;4.07;;;19.40;99.90;;;;;;5116049;28;20588;-72
2022/05/16 10:49:16;;;;;;;6.43;3.72;;;19.60;99.90;;;;;;5116104;28;20160;-72
2022/05/16 10:52:05;;;;;;;5.90;4.00;;;19.70;99.90;;;;;;5097276;28;20633;-73
2022/05/16 10:54:31;;;;;;;9.65;4.82;;;19.90;99.90;;;;;;5116010;28;20206;-73
2022/05/16 10:57:35;;;;;;;6.45;3.97;;;20.20;99.90;;;;;;5115380;28;20193;-72
2022/05/16 11:00:06;;;;;;;9.50;4.20;;;20.50;99.90;;;;;;5102534;28;20184;-72
2022/05/16 11:02:55;;;;;;;7.15;4.32;;;21.00;99.90;;;;;;5098020;28;20571;-73
2022/05/16 11:05:43;;;;;;;9.00;4.78;;;21.30;99.90;;;;;;5051200;28;20216;-73
2022/05/16 11:08:23;;;;;;;6.95;4.63;;;21.70;99.90;;;;;;5096967;28;20211;-72
2022/05/16 11:11:14;;;;;;;6.90;3.92;;;22.00;99.90;;;;;;5115443;28;20156;-72
2022/05/16 11:13:48;;;;;;;9.65;4.57;;;22.50;99.90;;;;;;5115134;28;20217;-73
2022/05/16 11:16:26;;;;;;;7.13;4.20;;;22.80;99.90;;;;;;5115145;28;20183;-73
2022/05/16 11:19:16;;;;;;;6.88;5.55;;;22.90;99.90;;;;;;5115250;28;20172;-73
2022/05/16 11:22:13;;;;;;;10.38;4.47;;;23.00;99.90;;;;;;5115295;28;20635;-73
2022/05/16 11:24:53;;;;;;;9.60;4.10;;;23.20;99.90;;;;;;5115054;28;20231;-73
2022/05/16 11:27:53;;;;;;;10.38;4.38;;;23.40;99.90;;;;;;5114675;28;20597;-73
2022/05/16 11:30:43;;;;;;;6.15;3.90;;;23.40;99.90;;;;;;5114894;28;20149;-73
2022/05/16 11:33:25;;;;;;;6.03;3.92;;;23.50;99.90;;;;;;5096813;28;20168;-73
2022/05/16 11:35:57;;;;;;;10.02;4.10;;;23.40;99.90;;;;;;5096704;28;20200;-73
2022/05/16 11:38:33;;;;;;;8.50;4.97;;;23.50;99.90;;;;;;5096799;28;20640;-73
2022/05/16 11:41:35;;;;;;;7.05;3.85;;;23.50;99.90;;;;;;5114777;28;20624;-73
2022/05/16 11:44:23;;;;;;;8.90;4.93;;;23.50;99.90;;;;;;5114677;28;20172;-73
2022/05/16 11:47:04;;;;;;;4.25;3.25;;;23.40;99.90;;;;;;5114626;28;20194;-73
2022/05/16 11:49:59;;;;;;;8.43;4.43;;;23.60;99.90;;;;;;5114928;28;20165;-72
2022/05/16 11:52:48;;;;;;;8.68;4.40;;;23.90;99.90;;;;;;5096826;28;20192;-73
2022/05/16 12:01:33;;;;;;;11.57;3.72;;;23.80;99.90;;;;;;5114595;28;20160;-72
2022/05/16 12:04:11;;;;;;;7.50;3.33;;;24.10;99.90;;;;;;5114079;28;20205;-73
2022/05/16 12:06:43;;;;;;;7.85;4.05;;;24.70;99.90;;;;;;5096200;28;20570;-73
2022/05/16 12:09:19;;;;;;;4.85;2.88;;;25.10;99.90;;;;;;5114660;28;20625;-73
2022/05/16 12:12:00;;;;;;;6.10;3.00;;;25.40;99.90;;;;;;5114600;28;20629;-73
2022/05/16 12:14:32;;;;;;;5.65;2.80;;;25.90;99.90;;;;;;5114495;28;20200;-73
2022/05/16 12:17:07;;;;;;;4.55;2.78;;;26.20;99.90;;;;;;5096081;28;20228;-73
2022/05/16 12:19:37;;;;;;;4.93;2.78;;;26.30;99.90;;;;;;5095889;28;20179;-73
2022/05/16 12:22:13;;;;;;;5.80;2.88;;;26.00;99.90;;;;;;5114728;28;20173;-73
2022/05/16 12:24:41;;;;;;;8.43;3.10;;;25.70;99.90;;;;;;5095939;28;20253;-73
2022/05/16 12:27:27;;;;;;;5.10;2.88;;;25.60;99.90;;;;;;5095494;28;20238;-72
2022/05/16 12:30:01;;;;;;;4.03;2.80;;;25.40;99.90;;;;;;5114055;28;20152;-72
2022/05/16 12:32:30;;;;;;;8.05;3.55;;;25.60;99.90;;;;;;5114376;28;20621;-73
2022/05/16 12:35:09;;;;;;;5.10;3.00;;;25.80;99.90;;;;;;5114024;28;20229;-73
2022/05/16 12:37:37;;;;;;;6.03;3.22;;;26.30;99.90;;;;;;5095724;28;20208;-73
2022/05/16 12:40:22;;;;;;;7.63;3.33;;;26.80;99.90;;;;;;5114842;28;20507;-73
2022/05/16 12:43:12;;;;;;;6.95;3.53;;;26.60;99.90;;;;;;5095714;28;20230;-73
2022/05/16 12:46:07;;;;;;;6.15;2.95;;;26.90;99.90;;;;;;5095653;28;20613;-73
2022/05/16 12:48:51;;;;;;;8.82;3.05;;;27.10;99.90;;;;;;5113993;28;20181;-73
2022/05/16 12:51:36;;;;;;;5.97;2.60;;;27.10;99.90;;;;;;5095617;28;20176;-73
2022/05/16 12:54:39;;;;;;;4.53;2.60;;;27.50;99.90;;;;;;5114234;28;20195;-73
2022/05/16 12:57:33;;;;;;;4.25;2.92;;;27.80;99.90;;;;;;5113546;28;20192;-73
2022/05/16 13:00:25;;;;;;;6.50;3.22;;;28.50;99.90;;;;;;5086294;28;20253;-73
2022/05/16 13:02:59;;;;;;;4.40;2.80;;;28.90;99.90;;;;;;5113824;28;20165;-73
2022/05/16 13:05:42;;;;;;;6.60;3.10;;;28.70;99.90;;;;;;5113652;28;20188;-73
2022/05/16 13:08:28;;;;;;;7.22;2.88;;;28.30;99.90;;;;;;5114161;28;20284;-73
2022/05/16 13:11:13;;;;;;;5.22;3.15;;;27.90;99.90;;;;;;5113858;28;20160;-73
2022/05/16 13:14:11;;;;;;;6.95;2.97;;;27.90;99.90;;;;;;5113791;28;20274;-73
2022/05/16 13:17:00;;;;;;;5.55;2.80;;;27.50;99.90;;;;;;5097591;28;20201;-73
2022/05/16 13:19:32;;;;;;;7.78;2.88;;;27.10;99.90;;;;;;5117564;28;20230;-73
2022/05/16 13:22:14;;;;;;;4.80;2.72;;;26.80;99.90;;;;;;5099130;28;20173;-73
2022/05/16 13:24:39;;;;;;;4.15;2.70;;;26.60;99.90;;;;;;5117815;28;20184;-73
2022/05/16 13:29:54;;;;;;;3.95;3.03;;;26.10;99.90;;;;;;5117556;28;20572;-72
2022/05/16 13:32:29;;;;;;;3.50;2.38;;;25.80;99.90;;;;;;5117116;28;20325;-72
2022/05/16 13:35:00;;;;;;;6.10;2.38;;;25.60;99.90;;;;;;5117377;28;20148;-72
2022/05/16 13:37:32;;;;;;;4.68;2.30;;;25.50;99.90;;;;;;5117255;28;20282;-73
2022/05/16 13:40:13;;;;;;;3.15;2.50;;;25.70;99.90;;;;;;5117482;28;20617;-72
2022/05/16 13:42:41;;;;;;;5.18;2.45;;;25.70;99.90;;;;;;5117050;28;20748;-72
2022/05/16 13:45:08;;;;;;;3.50;2.42;;;25.80;99.90;;;;;;5117567;28;20652;-73